Terminal Aerodrome Forecast
Issued by NWS

Home | Current Version | Previous Version | Text Only | Print | Product List | Glossary On
Versions: 1 2 3 4 5 6 7 8 9 10 11 12 13 14 15
000
FTAK31 PAJN 012300
TAFAKT
TAF
PAKT 012324Z 0200/0224 30004KT P6SM -RA FEW025 OVC035
     FM022000 30005KT P6SM VCSH OVC035
      AMD LTD TO CLD VIS AND WIND 0206/0215=

USA.gov is the U.S. government's official web portal to all federal, state and local government web resources and services.